createdAt,value
2023-11-23T00:00:34.816Z,10.98
2023-11-23T00:03:02.916Z,11.35
2023-11-23T00:05:30.703Z,10.70
2023-11-23T00:07:59.502Z,11.27
2023-11-23T00:10:29.247Z,10.60
2023-11-23T00:12:57.069Z,11.27
2023-11-23T00:15:24.806Z,10.98
2023-11-23T00:17:53.572Z,11.90
2023-11-23T00:20:21.401Z,10.70
2023-11-23T00:22:52.410Z,11.35
2023-11-23T00:25:20.252Z,10.43
2023-11-23T00:27:47.790Z,11.45
2023-11-23T00:30:16.871Z,11.10
2023-11-23T00:32:44.846Z,10.40
2023-11-23T00:35:12.555Z,11.15
2023-11-23T00:37:40.622Z,11.30
2023-11-23T00:40:08.839Z,10.88
2023-11-23T00:42:36.297Z,10.68
2023-11-23T00:45:05.024Z,10.10
2023-11-23T00:47:32.940Z,10.35
2023-11-23T00:50:00.764Z,11.98
2023-11-23T00:52:31.625Z,10.77
2023-11-23T00:54:59.911Z,12.25
2023-11-23T00:57:27.760Z,10.50
2023-11-23T00:59:55.932Z,11.10
2023-11-23T01:02:23.627Z,11.48
2023-11-23T01:04:51.492Z,10.90
2023-11-23T01:07:19.309Z,10.40
2023-11-23T01:09:46.853Z,10.27
2023-11-23T01:12:15.363Z,11.30
2023-11-23T01:14:44.077Z,10.25
2023-11-23T01:17:11.636Z,11.32
2023-11-23T01:19:39.298Z,10.57
2023-11-23T01:22:07.494Z,11.60
2023-11-23T01:24:35.244Z,10.10
2023-11-23T01:27:03.019Z,11.50
2023-11-23T01:29:31.115Z,10.73
2023-11-23T01:31:59.075Z,10.13
2023-11-23T01:34:26.980Z,11.03
2023-11-23T01:36:55.134Z,10.23
2023-11-23T01:39:22.848Z,10.95
2023-11-23T01:41:50.431Z,10.18
2023-11-23T01:44:19.544Z,10.43
2023-11-23T01:46:47.324Z,10.60
2023-11-23T01:49:15.307Z,11.27
2023-11-23T01:51:43.395Z,10.63
2023-11-23T01:54:11.004Z,9.70
2023-11-23T01:56:39.271Z,10.52
2023-11-23T01:59:07.191Z,10.83
2023-11-23T02:01:35.466Z,11.10
2023-11-23T02:04:03.583Z,11.68
2023-11-23T02:06:32.091Z,11.40
2023-11-23T02:09:00.253Z,11.23
2023-11-23T02:11:28.489Z,11.70
2023-11-23T02:14:01.261Z,11.85
2023-11-23T02:16:29.184Z,11.85
2023-11-23T02:18:56.907Z,11.12
2023-11-23T02:21:25.211Z,11.80
2023-11-23T02:23:53.242Z,10.07
2023-11-23T02:26:21.216Z,9.68
2023-11-23T02:28:49.994Z,10.73
2023-11-23T02:31:17.793Z,11.15
2023-11-23T02:33:45.643Z,10.85
2023-11-23T02:36:16.717Z,12.37
2023-11-23T02:38:44.511Z,12.00
2023-11-23T02:41:12.022Z,10.80
2023-11-23T02:43:40.119Z,10.55
2023-11-23T02:46:08.159Z,10.93
2023-11-23T02:48:36.132Z,9.90
2023-11-23T02:51:04.304Z,11.45
2023-11-23T02:53:33.956Z,10.82
2023-11-23T02:56:02.552Z,10.15
2023-11-23T02:58:30.645Z,10.77
2023-11-23T03:00:58.578Z,9.63
2023-11-23T03:03:26.293Z,21.10
2023-11-23T03:05:55.052Z,16.67
2023-11-23T03:08:23.350Z,17.20
2023-11-23T03:10:52.107Z,13.27
2023-11-23T03:13:20.814Z,10.87
2023-11-23T03:15:51.178Z,10.77
2023-11-23T03:18:19.397Z,10.93
2023-11-23T03:20:47.439Z,11.63
2023-11-23T03:23:15.034Z,11.50
2023-11-23T03:25:45.486Z,10.53
2023-11-23T03:28:13.874Z,10.52
2023-11-23T03:30:41.514Z,10.73
2023-11-23T03:33:09.435Z,9.80
2023-11-23T03:35:37.538Z,10.13
2023-11-23T03:38:05.120Z,9.13
2023-11-23T03:40:32.859Z,7.90
2023-11-23T03:43:00.975Z,8.10
2023-11-23T03:45:28.722Z,8.50
2023-11-23T03:47:57.532Z,9.32
2023-11-23T03:50:25.650Z,9.03
2023-11-23T03:52:53.505Z,10.30
2023-11-23T03:55:21.036Z,10.13
2023-11-23T03:57:49.477Z,8.95
2023-11-23T04:00:17.278Z,9.13
2023-11-23T04:02:47.337Z,8.67
2023-11-23T04:05:21.609Z,8.45
2023-11-23T04:07:49.428Z,10.07
2023-11-23T04:10:17.277Z,8.88
2023-11-23T04:12:45.003Z,9.63
2023-11-23T04:15:13.917Z,9.13
2023-11-23T04:17:41.615Z,8.82
2023-11-23T04:20:10.906Z,9.43
2023-11-23T04:22:39.525Z,8.82
2023-11-23T04:25:07.396Z,9.20
2023-11-23T04:27:35.033Z,7.57
2023-11-23T04:30:05.738Z,8.82
2023-11-23T04:32:34.433Z,9.00
2023-11-23T04:35:02.228Z,8.35
2023-11-23T04:37:30.468Z,8.75
2023-11-23T04:39:59.136Z,9.07
2023-11-23T04:42:26.962Z,9.25
2023-11-23T04:44:54.840Z,9.57
2023-11-23T04:47:22.705Z,9.73
2023-11-23T04:49:50.701Z,9.25
2023-11-23T04:52:18.779Z,9.30
2023-11-23T04:54:46.579Z,9.38
2023-11-23T04:57:14.459Z,9.25
2023-11-23T04:59:42.572Z,9.90
2023-11-23T05:02:11.941Z,10.02
2023-11-23T05:04:39.742Z,10.47
2023-11-23T05:07:07.982Z,9.68
2023-11-23T05:09:35.496Z,9.60
2023-11-23T05:12:03.548Z,9.65
2023-11-23T05:14:31.693Z,10.68
2023-11-23T05:16:59.249Z,9.37
2023-11-23T05:19:36.075Z,10.20
2023-11-23T05:22:10.520Z,10.82
2023-11-23T05:24:38.188Z,9.68
2023-11-23T05:27:07.625Z,9.77
2023-11-23T05:29:35.663Z,9.53
2023-11-23T05:32:03.746Z,9.45
2023-11-23T05:34:31.352Z,10.48
2023-11-23T05:36:59.408Z,9.15
2023-11-23T05:39:27.784Z,9.63
2023-11-23T05:41:55.298Z,10.17
2023-11-23T05:44:23.777Z,11.52
2023-11-23T05:46:53.168Z,10.05
2023-11-23T05:49:22.691Z,10.07
2023-11-23T05:51:50.820Z,10.43
2023-11-23T05:54:18.829Z,9.93
2023-11-23T05:56:46.704Z,10.05
2023-11-23T05:59:14.920Z,10.35
2023-11-23T06:01:42.734Z,9.77
2023-11-23T06:04:11.183Z,9.85
2023-11-23T06:06:38.951Z,9.60
2023-11-23T06:09:06.914Z,10.20
2023-11-23T06:11:34.753Z,10.00
2023-11-23T06:14:02.574Z,10.98
2023-11-23T06:16:30.419Z,10.40
2023-11-23T06:18:59.200Z,9.93
2023-11-23T06:21:29.136Z,10.57
2023-11-23T06:23:56.750Z,10.25
2023-11-23T06:26:24.858Z,10.95
2023-11-23T06:28:52.498Z,10.38
2023-11-23T06:31:20.347Z,11.53
2023-11-23T06:33:48.623Z,10.63
2023-11-23T06:36:17.479Z,10.65
2023-11-23T06:38:45.273Z,10.40
2023-11-23T06:41:22.984Z,11.30
2023-11-23T06:43:51.508Z,11.00
2023-11-23T06:46:21.389Z,11.60
2023-11-23T06:48:49.506Z,11.07
2023-11-23T06:51:17.395Z,10.23
2023-11-23T06:53:47.459Z,10.90
2023-11-23T06:56:16.257Z,12.00
2023-11-23T06:58:47.862Z,10.82
2023-11-23T07:01:16.626Z,11.30
2023-11-23T07:03:45.285Z,12.32
2023-11-23T07:06:15.314Z,12.60
2023-11-23T07:08:43.375Z,13.30
2023-11-23T07:11:14.215Z,12.63
2023-11-23T07:13:41.990Z,12.37
2023-11-23T07:16:10.913Z,12.90
2023-11-23T07:18:39.108Z,10.95
2023-11-23T07:21:07.253Z,11.03
2023-11-23T07:23:37.637Z,11.82
2023-11-23T07:26:06.025Z,12.35
2023-11-23T07:28:33.946Z,11.65
2023-11-23T07:31:02.415Z,11.80
2023-11-23T07:33:35.629Z,12.30
2023-11-23T07:36:04.521Z,12.27
2023-11-23T07:38:33.606Z,12.63
2023-11-23T07:41:06.281Z,12.88
2023-11-23T07:43:35.092Z,12.48
2023-11-23T07:46:03.078Z,11.63
2023-11-23T07:48:32.370Z,13.38
2023-11-23T07:51:00.832Z,13.25
2023-11-23T07:53:31.784Z,12.27
2023-11-23T07:55:59.752Z,13.20
2023-11-23T07:58:27.615Z,14.27
2023-11-23T08:00:55.417Z,12.65
2023-11-23T08:03:23.376Z,11.88
2023-11-23T08:05:51.161Z,12.00
2023-11-23T08:08:19.001Z,12.77
2023-11-23T08:10:47.097Z,12.53
2023-11-23T08:13:17.444Z,12.90
2023-11-23T08:15:45.102Z,11.82
2023-11-23T08:18:13.543Z,12.80
2023-11-23T08:20:41.403Z,11.38
2023-11-23T08:23:10.170Z,12.73
2023-11-23T08:25:38.970Z,11.55
2023-11-23T08:28:06.856Z,12.27
2023-11-23T08:30:34.512Z,13.60
2023-11-23T08:33:02.672Z,14.30
2023-11-23T08:35:30.622Z,12.97
2023-11-23T08:37:58.863Z,11.35
2023-11-23T08:40:26.950Z,11.77
2023-11-23T08:42:54.508Z,11.82
2023-11-23T08:45:22.370Z,12.32
2023-11-23T08:47:50.525Z,12.30
2023-11-23T08:50:18.699Z,11.80
2023-11-23T08:52:46.279Z,11.02
2023-11-23T08:55:14.913Z,11.55
2023-11-23T08:57:42.489Z,11.50
2023-11-23T09:00:11.756Z,10.70
2023-11-23T09:02:40.475Z,12.45
2023-11-23T09:05:11.084Z,11.57
2023-11-23T09:07:40.345Z,11.80
2023-11-23T09:10:09.049Z,11.12
2023-11-23T09:12:39.686Z,11.43
2023-11-23T09:15:09.130Z,11.98
2023-11-23T09:17:37.856Z,10.02
2023-11-23T09:20:09.488Z,11.55
2023-11-23T09:22:37.475Z,11.07
2023-11-23T09:25:07.425Z,10.50
2023-11-23T09:27:37.628Z,11.32
2023-11-23T09:30:10.042Z,11.38
2023-11-23T09:32:39.042Z,11.23
2023-11-23T09:35:11.608Z,11.00
2023-11-23T09:37:39.427Z,10.70
2023-11-23T09:40:10.588Z,10.50
2023-11-23T09:42:39.863Z,11.68
2023-11-23T09:45:14.950Z,10.68
2023-11-23T09:47:43.614Z,12.00
2023-11-23T09:50:12.009Z,11.30
2023-11-23T09:52:40.850Z,12.48
2023-11-23T09:55:10.327Z,10.73
2023-11-23T09:57:39.268Z,12.05
2023-11-23T10:00:10.526Z,12.68
2023-11-23T10:02:38.716Z,13.53
2023-11-23T10:05:08.529Z,13.00
2023-11-23T10:07:36.898Z,13.02
2023-11-23T10:10:06.696Z,13.93
2023-11-23T10:12:34.674Z,12.52
2023-11-23T10:15:03.782Z,13.53
2023-11-23T10:17:32.042Z,14.20
2023-11-23T10:20:11.466Z,13.20
2023-11-23T10:22:46.758Z,11.82
2023-11-23T10:25:33.470Z,13.02
2023-11-23T10:28:02.354Z,10.80
2023-11-23T10:30:30.734Z,12.73
2023-11-23T10:32:59.659Z,12.18
2023-11-23T10:35:41.264Z,12.70
2023-11-23T10:38:09.405Z,12.02
2023-11-23T10:40:37.499Z,11.80
2023-11-23T10:43:08.047Z,10.85
2023-11-23T10:45:37.264Z,11.10
2023-11-23T10:48:05.883Z,10.80
2023-11-23T10:50:34.313Z,10.07
2023-11-23T10:53:02.890Z,8.33
2023-11-23T10:55:30.793Z,8.45
2023-11-23T10:58:02.901Z,8.07
2023-11-23T11:00:31.300Z,8.70
2023-11-23T11:03:01.330Z,9.15
2023-11-23T11:05:35.855Z,7.83
2023-11-23T11:08:09.286Z,7.80
2023-11-23T11:10:42.971Z,8.63
2023-11-23T11:13:16.872Z,9.60
2023-11-23T11:15:57.271Z,8.82
2023-11-23T11:18:27.697Z,7.80
2023-11-23T11:21:11.321Z,8.13
2023-11-23T11:23:47.519Z,8.63
2023-11-23T11:26:19.571Z,8.20
2023-11-23T11:28:55.392Z,8.00
2023-11-23T11:31:42.372Z,7.13
2023-11-23T11:34:18.398Z,7.65
2023-11-23T11:37:10.406Z,7.47
2023-11-23T11:39:40.427Z,8.18
2023-11-23T11:42:09.276Z,7.97
2023-11-23T11:44:43.062Z,8.03
2023-11-23T11:47:12.102Z,7.72
2023-11-23T11:49:39.805Z,8.18
2023-11-23T11:52:08.352Z,8.50
2023-11-23T11:54:39.686Z,8.40
2023-11-23T11:57:08.803Z,8.20
2023-11-23T11:59:37.934Z,7.97
2023-11-23T12:02:06.962Z,7.35
2023-11-23T12:04:36.796Z,6.75
2023-11-23T12:07:13.123Z,7.28
2023-11-23T12:09:46.300Z,8.37
2023-11-23T12:12:15.196Z,6.90
2023-11-23T12:14:45.596Z,8.32
2023-11-23T12:17:14.675Z,14.27
2023-11-23T12:19:56.360Z,9.93
2023-11-23T12:22:29.336Z,10.33
2023-11-23T12:25:06.796Z,7.05
2023-11-23T12:27:35.446Z,7.18
2023-11-23T12:30:05.946Z,7.53
2023-11-23T12:32:34.089Z,7.07
2023-11-23T12:35:01.923Z,7.47
2023-11-23T12:37:30.835Z,7.65
2023-11-23T12:39:58.855Z,7.28
2023-11-23T12:42:26.448Z,7.12
2023-11-23T12:44:54.543Z,7.82
2023-11-23T12:47:22.608Z,8.17
2023-11-23T12:49:50.605Z,7.47
2023-11-23T12:52:19.313Z,7.30
2023-11-23T12:54:46.955Z,6.97
2023-11-23T12:57:14.845Z,6.60
2023-11-23T12:59:42.657Z,5.60
2023-11-23T13:02:10.668Z,5.65
2023-11-23T13:04:38.692Z,13.70
2023-11-23T13:07:09.568Z,12.43
2023-11-23T13:09:45.956Z,8.48
2023-11-23T13:12:23.196Z,5.83
2023-11-23T13:14:53.958Z,5.87
2023-11-23T13:17:24.532Z,6.85
2023-11-23T13:20:04.736Z,5.55
2023-11-23T13:22:42.742Z,7.45
2023-11-23T13:25:18.641Z,5.77
2023-11-23T13:27:57.676Z,6.30
2023-11-23T13:30:36.946Z,5.93
2023-11-23T13:33:14.365Z,5.30
2023-11-23T13:35:48.627Z,6.30
2023-11-23T13:38:20.048Z,6.23
2023-11-23T13:40:50.979Z,6.62
2023-11-23T13:43:19.889Z,6.62
2023-11-23T13:45:50.844Z,6.22
2023-11-23T13:48:22.895Z,5.87
2023-11-23T13:50:51.754Z,6.47
2023-11-23T13:53:22.270Z,6.57
2023-11-23T13:55:53.543Z,6.75
2023-11-23T13:58:27.143Z,6.85
2023-11-23T14:00:57.896Z,7.55
2023-11-23T14:03:31.876Z,7.97
2023-11-23T14:06:07.664Z,7.53
2023-11-23T14:08:41.623Z,8.35
2023-11-23T14:11:09.917Z,8.07
2023-11-23T14:13:46.281Z,8.55
2023-11-23T14:16:24.340Z,9.73
2023-11-23T14:18:54.079Z,9.48
2023-11-23T14:21:34.826Z,10.73
2023-11-23T14:24:07.412Z,9.65
2023-11-23T14:26:35.910Z,10.15
2023-11-23T14:29:04.710Z,9.23
2023-11-23T14:31:34.204Z,9.63
2023-11-23T14:34:02.978Z,10.60
2023-11-23T14:36:31.693Z,11.35
2023-11-23T14:39:00.137Z,13.80
2023-11-23T14:41:28.704Z,14.17
2023-11-23T14:43:57.170Z,10.88
2023-11-23T14:46:25.354Z,11.50
2023-11-23T14:48:53.704Z,10.38
2023-11-23T14:51:23.786Z,9.40
2023-11-23T14:53:53.401Z,10.87
2023-11-23T14:56:27.512Z,12.50
2023-11-23T14:58:55.888Z,11.00
2023-11-23T15:01:24.559Z,12.93
2023-11-23T15:03:53.157Z,14.95
2023-11-23T15:06:22.094Z,14.07
2023-11-23T15:08:50.734Z,12.95
2023-11-23T15:11:18.912Z,23.85
2023-11-23T15:13:47.052Z,29.20
2023-11-23T15:16:18.876Z,15.85
2023-11-23T15:18:47.374Z,12.77
2023-11-23T15:21:16.605Z,11.45
2023-11-23T15:23:44.800Z,11.63
2023-11-23T15:26:13.278Z,10.70
2023-11-23T15:28:42.320Z,11.02
2023-11-23T15:31:11.746Z,15.60
2023-11-23T15:33:40.160Z,12.45
2023-11-23T15:36:09.377Z,10.90
2023-11-23T15:38:37.915Z,10.98
2023-11-23T15:41:06.446Z,10.60
2023-11-23T15:43:35.321Z,10.63
2023-11-23T15:46:06.040Z,11.25
2023-11-23T15:48:34.900Z,11.82
2023-11-23T15:51:03.034Z,10.85
2023-11-23T15:53:31.399Z,11.60
2023-11-23T15:56:00.625Z,11.23
2023-11-23T15:58:29.079Z,11.80
2023-11-23T16:00:58.594Z,20.00
2023-11-23T16:03:27.277Z,23.02
2023-11-23T16:05:55.927Z,19.00
2023-11-23T16:08:24.642Z,17.23
2023-11-23T16:10:53.120Z,14.85
2023-11-23T16:13:22.699Z,13.32
2023-11-23T16:15:51.196Z,12.73
2023-11-23T16:18:19.775Z,12.48
2023-11-23T16:20:49.225Z,13.00
2023-11-23T16:23:18.271Z,12.45
2023-11-23T16:25:46.971Z,11.82
2023-11-23T16:28:15.359Z,13.13
2023-11-23T16:30:43.998Z,14.43
2023-11-23T16:33:12.851Z,13.07
2023-11-23T16:35:41.692Z,11.48
2023-11-23T16:38:10.314Z,12.15
2023-11-23T16:40:39.992Z,11.63
2023-11-23T16:43:08.497Z,11.50
2023-11-23T16:45:36.923Z,12.07
2023-11-23T16:48:07.518Z,12.15
2023-11-23T16:50:35.811Z,12.55
2023-11-23T16:53:04.494Z,12.57
2023-11-23T16:55:36.413Z,14.45
2023-11-23T16:58:06.197Z,13.87
2023-11-23T17:00:37.309Z,13.02
2023-11-23T17:03:06.313Z,13.10
2023-11-23T17:05:35.054Z,11.88
2023-11-23T17:08:06.178Z,12.45
2023-11-23T17:10:34.612Z,12.60
2023-11-23T17:13:03.172Z,11.65
2023-11-23T17:15:31.614Z,11.70
2023-11-23T17:18:00.463Z,11.65
2023-11-23T17:20:29.808Z,13.95
2023-11-23T17:23:02.602Z,15.53
2023-11-23T17:25:31.818Z,13.98
2023-11-23T17:28:01.051Z,13.05
2023-11-23T17:30:29.977Z,12.27
2023-11-23T17:33:01.787Z,11.10
2023-11-23T17:35:30.774Z,11.23
2023-11-23T17:38:02.091Z,12.50
2023-11-23T17:40:30.377Z,11.80
2023-11-23T17:43:04.546Z,12.75
2023-11-23T17:45:34.628Z,11.63
2023-11-23T17:48:05.456Z,13.10
2023-11-23T17:50:34.577Z,12.05
2023-11-23T17:53:05.742Z,13.15
2023-11-23T17:55:34.767Z,13.88
2023-11-23T17:58:03.724Z,13.35
2023-11-23T18:00:33.378Z,13.40
2023-11-23T18:03:02.510Z,12.93
2023-11-23T18:05:33.103Z,14.07
2023-11-23T18:08:02.917Z,11.88
2023-11-23T18:10:31.401Z,13.25
2023-11-23T18:13:02.878Z,12.83
2023-11-23T18:15:34.341Z,12.23
2023-11-23T18:18:04.174Z,14.87
2023-11-23T18:20:37.450Z,13.75
2023-11-23T18:23:06.388Z,14.15
2023-11-23T18:25:37.683Z,13.83
2023-11-23T18:28:06.531Z,14.73
2023-11-23T18:30:39.054Z,14.85
2023-11-23T18:33:07.685Z,14.90
2023-11-23T18:35:36.726Z,14.70
2023-11-23T18:38:06.980Z,13.77
2023-11-23T18:40:37.099Z,13.55
2023-11-23T18:43:05.707Z,14.98
2023-11-23T18:45:37.550Z,15.35
2023-11-23T18:48:06.374Z,15.43
2023-11-23T18:50:35.209Z,14.87
2023-11-23T18:53:03.903Z,13.77
2023-11-23T18:55:36.968Z,13.05
2023-11-23T18:58:06.622Z,13.73
2023-11-23T19:00:35.783Z,14.02
2023-11-23T19:03:07.239Z,11.57
2023-11-23T19:05:39.111Z,11.10
2023-11-23T19:08:10.289Z,11.60
2023-11-23T19:10:40.032Z,9.68
2023-11-23T19:13:09.380Z,10.48
2023-11-23T19:15:37.762Z,9.50
2023-11-23T19:18:07.372Z,10.00
2023-11-23T19:20:36.817Z,9.82
2023-11-23T19:23:08.228Z,9.55
2023-11-23T19:25:37.081Z,9.45
2023-11-23T19:28:06.157Z,10.10
2023-11-23T19:30:34.891Z,9.10
2023-11-23T19:33:06.452Z,9.75
2023-11-23T19:35:39.161Z,9.80
2023-11-23T19:38:08.418Z,9.48
2023-11-23T19:40:37.691Z,10.20
2023-11-23T19:43:06.485Z,10.63
2023-11-23T19:45:35.113Z,10.32
2023-11-23T19:48:03.990Z,9.70
2023-11-23T19:50:33.626Z,9.55
2023-11-23T19:53:11.429Z,9.87
2023-11-23T19:55:40.380Z,11.25
2023-11-23T19:58:10.283Z,11.05
2023-11-23T20:00:41.176Z,11.73
2023-11-23T20:03:09.805Z,11.68
2023-11-23T20:05:43.468Z,10.53
2023-11-23T20:08:15.925Z,11.27
2023-11-23T20:10:45.998Z,11.55
2023-11-23T20:13:15.052Z,11.77
2023-11-23T20:15:46.867Z,12.30
2023-11-23T20:18:19.042Z,12.60
2023-11-23T20:20:47.242Z,11.98
2023-11-23T20:23:16.390Z,11.85
2023-11-23T20:25:47.762Z,12.02
2023-11-23T20:28:16.914Z,12.90
2023-11-23T20:30:45.480Z,12.00
2023-11-23T20:33:16.860Z,11.77
2023-11-23T20:35:49.504Z,11.60
2023-11-23T20:38:21.021Z,11.20
2023-11-23T20:40:52.413Z,12.25
2023-11-23T20:43:25.434Z,11.57
2023-11-23T20:45:55.843Z,11.07
2023-11-23T20:48:27.960Z,11.40
2023-11-23T20:50:57.064Z,10.73
2023-11-23T20:53:25.428Z,10.93
2023-11-23T20:55:54.695Z,9.90
2023-11-23T20:58:27.364Z,10.63
2023-11-23T21:00:58.172Z,10.88
2023-11-23T21:03:29.709Z,9.75
2023-11-23T21:05:59.080Z,10.18
2023-11-23T21:08:28.701Z,9.90
2023-11-23T21:11:00.340Z,10.05
2023-11-23T21:13:29.130Z,10.20
2023-11-23T21:15:57.889Z,11.70
2023-11-23T21:18:37.636Z,10.32
2023-11-23T21:21:06.970Z,9.83
2023-11-23T21:23:37.790Z,10.13
2023-11-23T21:26:11.856Z,9.30
2023-11-23T21:28:46.423Z,9.57
2023-11-23T21:31:18.001Z,9.73
2023-11-23T21:33:50.204Z,9.73
2023-11-23T21:36:22.587Z,8.15
2023-11-23T21:38:55.883Z,9.80
2023-11-23T21:41:24.716Z,8.93
2023-11-23T21:43:53.183Z,9.15
2023-11-23T21:46:21.634Z,7.83
2023-11-23T21:48:50.059Z,8.95
2023-11-23T21:51:23.397Z,8.98
2023-11-23T21:53:51.988Z,8.73
2023-11-23T21:56:20.475Z,8.93
2023-11-23T21:58:48.647Z,8.63
2023-11-23T22:01:16.869Z,9.05
2023-11-23T22:03:46.253Z,8.48
2023-11-23T22:06:15.910Z,9.23
2023-11-23T22:08:43.703Z,8.85
2023-11-23T22:11:13.877Z,8.90
2023-11-23T22:13:42.001Z,9.32
2023-11-23T22:16:09.836Z,8.88
2023-11-23T22:18:37.957Z,9.50
2023-11-23T22:21:05.819Z,9.32
2023-11-23T22:23:33.958Z,9.57
2023-11-23T22:26:02.288Z,9.68
2023-11-23T22:28:30.391Z,10.35
2023-11-23T22:30:59.518Z,10.20
2023-11-23T22:33:28.494Z,9.32
2023-11-23T22:35:56.564Z,8.77
2023-11-23T22:38:24.942Z,9.85
2023-11-23T22:40:53.796Z,9.10
2023-11-23T22:43:21.957Z,9.77
2023-11-23T22:45:50.542Z,9.35
2023-11-23T22:48:18.680Z,10.37
2023-11-23T22:50:46.530Z,10.82
2023-11-23T22:53:14.231Z,10.40
2023-11-23T22:55:42.167Z,10.05
2023-11-23T22:58:09.685Z,10.05
2023-11-23T23:00:38.176Z,9.97
2023-11-23T23:03:06.350Z,10.70
2023-11-23T23:05:34.850Z,10.13
2023-11-23T23:08:04.868Z,10.18
2023-11-23T23:10:34.330Z,9.73
2023-11-23T23:13:04.351Z,11.47
2023-11-23T23:15:32.099Z,11.55
2023-11-23T23:18:00.287Z,11.48
2023-11-23T23:20:28.045Z,11.15
2023-11-23T23:22:55.937Z,10.70
2023-11-23T23:25:23.862Z,11.83
2023-11-23T23:27:51.829Z,11.38
2023-11-23T23:30:19.771Z,10.30
2023-11-23T23:32:48.312Z,10.70
2023-11-23T23:35:17.027Z,9.93
2023-11-23T23:37:44.631Z,9.90
2023-11-23T23:40:12.874Z,9.85
2023-11-23T23:42:42.189Z,10.10
2023-11-23T23:45:10.201Z,9.43
2023-11-23T23:47:39.683Z,10.60
2023-11-23T23:50:07.725Z,10.63
2023-11-23T23:52:35.648Z,10.02
2023-11-23T23:55:07.703Z,10.40
2023-11-23T23:57:37.534Z,10.15
